Time;durP1;ratioP1;P1;durP2;ratioP2;P2;SDS_P1;SDS_P2;PMS_P1;PMS_P2;Temp;Humidity;BMP_temperature;BMP_pressure;BME280_temperature;BME280_humidity;BME280_pressure;Samples;Min_cycle;Max_cycle;Signal;HPM_P1;HPM_P2
2023/12/19 00:02:39;;;;;;;8.80;2.90;;;0.60;99.90;2.90;97962.00;;;;5026609;28;20424;-72
2023/12/19 00:05:28;;;;;;;12.27;3.90;;;0.60;99.90;2.60;97964.00;;;;5025970;28;20432;-72
2023/12/19 00:08:17;;;;;;;8.80;2.70;;;0.40;99.90;3.40;97963.00;;;;5030910;28;20784;-71
2023/12/19 00:11:07;;;;;;;8.40;2.80;;;0.80;99.90;3.20;97958.00;;;;5031018;28;20992;-72
2023/12/19 00:13:56;;;;;;;10.47;3.20;;;0.80;99.90;3.20;97952.00;;;;5025278;28;20428;-72
2023/12/19 00:16:45;;;;;;;11.07;3.57;;;0.80;99.90;3.40;97947.00;;;;5027735;28;20448;-72
2023/12/19 00:19:34;;;;;;;10.53;3.40;;;0.80;99.90;2.80;97945.00;;;;5030356;28;20428;-72
2023/12/19 00:22:23;;;;;;;21.70;6.37;;;1.00;99.90;3.00;97947.00;;;;5026212;28;20444;-71
2023/12/19 00:25:12;;;;;;;8.43;2.83;;;0.70;99.90;2.80;97929.00;;;;5024616;28;20428;-70
2023/12/19 00:28:03;;;;;;;9.40;2.93;;;0.80;99.90;2.40;97932.00;;;;5026817;28;20452;-71
2023/12/19 00:30:52;;;;;;;8.30;2.77;;;0.90;99.90;2.10;97935.00;;;;5024900;28;20467;-72
2023/12/19 00:33:41;;;;;;;8.73;2.97;;;0.90;99.90;3.00;97936.00;;;;5026215;28;20432;-72
2023/12/19 00:36:30;;;;;;;22.23;6.67;;;0.50;99.90;3.30;97935.00;;;;5050989;23;20571;-67
2023/12/19 00:39:18;;;;;;;6.17;2.27;;;0.80;99.90;3.60;97933.00;;;;5040157;28;20431;-67
2023/12/19 00:42:07;;;;;;;7.40;2.87;;;1.00;99.90;3.30;97922.00;;;;5040593;28;20455;-66
2023/12/19 00:44:58;;;;;;;5.13;2.13;;;0.90;99.90;3.10;97926.00;;;;5049086;28;20437;-66
2023/12/19 00:47:46;;;;;;;6.57;2.67;;;0.90;99.90;2.50;97920.00;;;;5049098;28;20447;-69
2023/12/19 00:50:35;;;;;;;6.83;2.93;;;0.70;99.90;2.80;97929.00;;;;5040665;28;20809;-66
2023/12/19 00:53:25;;;;;;;11.23;4.37;;;0.80;99.90;3.20;97927.00;;;;5049480;28;20427;-66
2023/12/19 00:56:14;;;;;;;7.70;3.13;;;1.00;99.90;3.30;97917.00;;;;5044806;28;20939;-67
2023/12/19 00:59:02;;;;;;;5.23;2.27;;;1.00;99.90;2.80;97928.00;;;;5045973;28;20427;-67
2023/12/19 01:01:53;;;;;;;10.37;4.00;;;0.60;99.90;2.80;97924.00;;;;5043785;28;20462;-66
2023/12/19 01:04:42;;;;;;;5.53;2.23;;;0.60;99.90;2.80;97918.00;;;;5040473;28;20417;-66
2023/12/19 01:07:31;;;;;;;6.53;2.70;;;0.60;99.90;3.20;97919.00;;;;5048696;28;20926;-67
2023/12/19 01:10:20;;;;;;;6.27;2.67;;;0.80;99.90;3.10;97933.00;;;;5046205;28;20415;-66
2023/12/19 01:13:09;;;;;;;6.17;2.60;;;0.70;99.90;2.80;97919.00;;;;5044403;28;20433;-66
2023/12/19 01:15:58;;;;;;;5.33;2.40;;;0.60;99.90;2.70;97927.00;;;;5045213;28;20811;-68
2023/12/19 01:18:48;;;;;;;5.20;2.20;;;0.30;99.90;2.10;97912.00;;;;5047442;28;20442;-67
2023/12/19 01:21:37;;;;;;;10.07;4.13;;;0.40;99.90;2.90;97924.00;;;;5046150;28;20489;-66
2023/12/19 01:24:26;;;;;;;9.97;4.03;;;0.40;99.90;2.90;97913.00;;;;5045533;28;20435;-66
2023/12/19 01:27:15;;;;;;;8.07;3.20;;;0.30;99.90;2.80;97915.00;;;;5050726;28;20835;-67
2023/12/19 01:30:05;;;;;;;11.50;4.43;;;0.50;99.90;2.10;97928.00;;;;5050105;28;20432;-68
2023/12/19 01:32:54;;;;;;;11.97;4.70;;;0.50;99.90;2.60;97921.00;;;;5049886;28;20415;-67
2023/12/19 01:35:45;;;;;;;7.50;3.17;;;0.50;99.90;2.40;97914.00;;;;5047075;28;20931;-67
2023/12/19 01:38:33;;;;;;;9.27;4.07;;;0.40;99.90;2.40;97914.00;;;;5051639;28;20455;-66
2023/12/19 01:41:22;;;;;;;9.97;3.93;;;0.50;99.90;2.70;97913.00;;;;5048393;28;20470;-66
2023/12/19 01:44:19;;;;;;;4.23;1.90;;;0.10;99.90;3.00;97907.00;;;;5045821;28;20423;-67
2023/12/19 01:47:08;;;;;;;7.93;3.10;;;0.50;99.90;3.10;97906.00;;;;5050870;28;21095;-67
2023/12/19 01:49:56;;;;;;;13.03;4.90;;;0.50;99.90;2.90;97900.00;;;;5053070;28;20426;-67
2023/12/19 01:52:52;;;;;;;6.67;2.70;;;0.40;99.90;2.90;97893.00;;;;5046684;28;20432;-66
2023/12/19 01:55:41;;;;;;;6.77;2.90;;;0.50;99.90;3.10;97889.00;;;;5049309;28;20968;-67
2023/12/19 01:58:30;;;;;;;8.57;3.53;;;0.60;99.90;3.30;97893.00;;;;5050577;28;20448;-67
2023/12/19 02:01:20;;;;;;;7.43;3.00;;;0.80;99.90;3.20;97885.00;;;;5048350;28;20840;-67
2023/12/19 02:04:11;;;;;;;6.67;2.63;;;0.90;99.90;2.80;97874.00;;;;5047541;28;20932;-68
2023/12/19 02:07:00;;;;;;;6.27;2.70;;;0.40;99.90;2.20;97870.00;;;;5049358;28;20439;-67
2023/12/19 02:09:52;;;;;;;6.00;2.50;;;0.40;99.90;3.10;97883.00;;;;5044462;28;20442;-66
2023/12/19 02:12:43;;;;;;;5.40;2.37;;;0.60;99.90;3.20;97886.00;;;;5055239;28;20433;-67
2023/12/19 02:15:32;;;;;;;10.90;4.23;;;0.60;99.90;3.20;97868.00;;;;5042482;28;20435;-69
2023/12/19 02:18:22;;;;;;;3.77;1.73;;;0.70;99.90;3.10;97861.00;;;;5046265;28;20643;-67
2023/12/19 02:21:11;;;;;;;7.27;2.93;;;0.80;99.90;3.10;97846.00;;;;5044988;28;20478;-68
2023/12/19 02:24:01;;;;;;;6.57;2.70;;;1.00;99.90;2.80;97849.00;;;;5048056;28;20423;-69
2023/12/19 02:26:50;;;;;;;5.67;2.50;;;0.80;99.90;3.40;97849.00;;;;5048897;28;20438;-68
2023/12/19 02:29:39;;;;;;;5.73;2.27;;;0.80;99.90;3.20;97839.00;;;;5047953;28;20432;-68
2023/12/19 02:32:33;;;;;;;10.10;4.03;;;1.00;99.90;3.30;97843.00;;;;5049847;28;20454;-67
2023/12/19 02:35:22;;;;;;;6.10;2.47;;;0.60;99.90;3.10;97840.00;;;;5048303;28;20434;-67
2023/12/19 02:38:11;;;;;;;6.00;2.47;;;0.80;99.90;2.80;97843.00;;;;5047052;28;20463;-68
2023/12/19 02:41:01;;;;;;;7.87;3.13;;;0.80;99.90;3.00;97834.00;;;;5047932;28;20424;-66
2023/12/19 02:43:50;;;;;;;5.00;2.20;;;0.90;99.90;2.60;97829.00;;;;5049631;28;20807;-69
2023/12/19 02:46:39;;;;;;;7.97;3.13;;;0.90;99.90;2.50;97832.00;;;;5051704;28;21022;-68
2023/12/19 02:49:29;;;;;;;10.33;4.10;;;0.80;99.90;2.40;97820.00;;;;5045504;28;20774;-67
2023/12/19 02:52:18;;;;;;;7.17;2.93;;;0.70;99.90;3.00;97830.00;;;;5051277;28;20497;-68
2023/12/19 02:55:08;;;;;;;7.57;3.00;;;0.70;99.90;3.20;97839.00;;;;5037866;28;20434;-68
2023/12/19 02:57:58;;;;;;;6.60;2.73;;;0.90;99.90;3.10;97822.00;;;;5055020;28;20959;-68
2023/12/19 03:00:47;;;;;;;4.53;2.03;;;0.70;99.90;3.10;97824.00;;;;5045167;28;20838;-68
2023/12/19 03:03:36;;;;;;;12.80;4.80;;;0.50;99.90;3.20;97829.00;;;;5046483;28;20856;-68
2023/12/19 03:06:25;;;;;;;9.77;3.87;;;0.80;99.90;3.10;97826.00;;;;5046558;28;20536;-68
2023/12/19 03:09:14;;;;;;;28.93;10.53;;;0.60;99.90;2.50;97813.00;;;;5045558;28;20427;-68
2023/12/19 03:12:05;;;;;;;8.50;3.37;;;0.50;99.90;3.00;97819.00;;;;5042970;28;20438;-68
2023/12/19 03:14:55;;;;;;;6.27;2.57;;;0.60;99.90;2.90;97813.00;;;;5046778;28;20434;-67
2023/12/19 03:17:44;;;;;;;7.53;2.90;;;0.60;99.90;3.00;97812.00;;;;5046869;28;20482;-68
2023/12/19 03:20:33;;;;;;;11.00;4.43;;;0.30;99.90;2.80;97811.00;;;;5047099;28;20435;-67
2023/12/19 03:23:22;;;;;;;7.90;3.20;;;0.30;99.90;2.80;97794.00;;;;5045023;28;21121;-68
2023/12/19 03:26:11;;;;;;;5.87;2.33;;;0.20;99.90;2.80;97799.00;;;;5046658;28;20430;-68
2023/12/19 03:29:00;;;;;;;6.57;2.60;;;0.40;99.90;2.40;97793.00;;;;5046691;28;20443;-68
2023/12/19 03:31:51;;;;;;;9.70;3.83;;;0.60;99.90;2.60;97796.00;;;;5045966;28;20419;-68
2023/12/19 03:34:40;;;;;;;4.67;2.03;;;0.60;99.90;2.80;97786.00;;;;5044961;28;20427;-66
2023/12/19 03:37:28;;;;;;;10.93;4.30;;;0.40;99.90;1.60;97772.00;;;;5044119;28;20459;-69
2023/12/19 03:40:18;;;;;;;7.27;2.90;;;0.10;99.90;2.20;97784.00;;;;5046778;28;20427;-68
2023/12/19 03:43:08;;;;;;;8.90;3.63;;;0.20;99.90;2.50;97790.00;;;;5042454;28;20482;-66
2023/12/19 03:46:01;;;;;;;6.00;2.60;;;0.10;99.90;2.60;97779.00;;;;5046426;28;20518;-67
2023/12/19 03:48:51;;;;;;;6.33;2.57;;;0.20;99.90;3.10;97791.00;;;;5047477;28;20963;-69
2023/12/19 03:51:40;;;;;;;8.00;3.17;;;0.60;99.90;3.10;97792.00;;;;5045504;28;20432;-68
2023/12/19 03:54:29;;;;;;;12.70;4.77;;;0.40;99.90;3.40;97786.00;;;;5046089;28;20431;-68
2023/12/19 03:57:18;;;;;;;8.47;3.23;;;0.80;99.90;3.60;97779.00;;;;5045420;28;20455;-68
2023/12/19 04:00:09;;;;;;;12.43;4.90;;;0.90;99.90;3.80;97791.00;;;;5044470;28;20428;-68
2023/12/19 04:02:58;;;;;;;13.53;4.90;;;1.00;99.90;3.00;97768.00;;;;5044856;28;20463;-67
2023/12/19 04:05:48;;;;;;;7.17;2.70;;;1.10;99.90;2.40;97751.00;;;;5046996;28;20420;-68
2023/12/19 04:08:37;;;;;;;9.07;3.83;;;0.80;99.90;2.60;97767.00;;;;5043540;28;20834;-67
2023/12/19 04:11:26;;;;;;;10.63;4.17;;;0.50;99.90;2.50;97772.00;;;;5041506;28;20423;-67
2023/12/19 04:14:15;;;;;;;5.33;2.23;;;0.40;99.90;2.70;97780.00;;;;5042875;28;20465;-67
2023/12/19 04:17:04;;;;;;;6.07;2.67;;;0.50;99.90;2.30;97785.00;;;;5050261;28;20450;-67
2023/12/19 04:19:52;;;;;;;9.60;3.70;;;0.40;99.90;2.40;97783.00;;;;5044584;28;20442;-66
2023/12/19 04:22:43;;;;;;;3.83;1.83;;;0.20;99.90;2.50;97787.00;;;;5048969;28;20470;-69
2023/12/19 04:25:32;;;;;;;12.03;4.67;;;0.10;99.90;2.60;97782.00;;;;5049313;28;20848;-68
2023/12/19 04:28:21;;;;;;;4.97;2.10;;;0.50;99.90;2.80;97802.00;;;;5043836;28;20489;-67
2023/12/19 04:31:10;;;;;;;6.07;2.57;;;0.20;99.90;2.50;97791.00;;;;5042971;28;20428;-67
2023/12/19 04:33:59;;;;;;;6.80;2.80;;;0.40;99.90;2.30;97782.00;;;;5046679;28;20428;-68
2023/12/19 04:36:48;;;;;;;7.27;3.03;;;0.40;99.90;1.40;97768.00;;;;5050417;28;20498;-68
2023/12/19 04:39:38;;;;;;;11.03;4.70;;;0.00;99.90;2.30;97775.00;;;;5049286;28;20423;-67
2023/12/19 04:42:27;;;;;;;8.03;3.43;;;0.20;99.90;3.00;97780.00;;;;5045911;28;20466;-67
2023/12/19 04:45:16;;;;;;;5.90;2.37;;;0.20;99.90;3.00;97770.00;;;;5044114;28;20979;-67
2023/12/19 04:48:06;;;;;;;5.83;2.50;;;0.50;99.90;2.80;97762.00;;;;5046840;28;20459;-69
2023/12/19 04:50:55;;;;;;;8.83;3.40;;;0.40;99.90;2.00;97760.00;;;;5046382;28;20423;-68
2023/12/19 04:53:43;;;;;;;7.60;3.17;;;0.60;99.90;2.70;97766.00;;;;5046280;28;20438;-67
2023/12/19 04:56:35;;;;;;;9.67;3.97;;;0.10;99.90;2.70;97760.00;;;;5045128;28;20905;-67
2023/12/19 04:59:24;;;;;;;7.13;2.80;;;0.50;99.90;2.80;97762.00;;;;5044858;28;20434;-67
2023/12/19 05:02:13;;;;;;;4.13;1.80;;;0.30;99.90;2.40;97755.00;;;;5046763;28;20427;-67
2023/12/19 05:05:02;;;;;;;6.30;2.70;;;0.60;99.90;2.70;97765.00;;;;5052469;28;21035;-68
2023/12/19 05:07:51;;;;;;;6.93;2.73;;;0.10;99.90;2.60;97745.00;;;;5053696;28;21163;-68
2023/12/19 05:10:40;;;;;;;8.53;3.67;;;0.40;99.90;2.70;97743.00;;;;5049912;28;20427;-67
2023/12/19 05:13:30;;;;;;;11.30;4.30;;;0.70;99.90;2.60;97739.00;;;;5048145;28;20419;-67
2023/12/19 05:16:20;;;;;;;4.43;1.87;;;0.30;99.90;2.70;97739.00;;;;5050176;28;20431;-67
2023/12/19 05:19:08;;;;;;;7.73;3.07;;;0.60;99.90;3.20;97746.00;;;;5045677;28;20434;-67
2023/12/19 05:21:57;;;;;;;6.97;2.70;;;0.70;99.90;3.00;97747.00;;;;5047108;28;20434;-68
2023/12/19 05:24:46;;;;;;;6.17;2.50;;;0.60;99.90;2.70;97734.00;;;;5048527;28;20432;-67
2023/12/19 05:27:36;;;;;;;11.83;4.53;;;0.40;99.90;2.30;97728.00;;;;5046480;28;20446;-67
2023/12/19 05:30:26;;;;;;;9.93;3.87;;;0.40;99.90;2.50;97741.00;;;;5045885;28;20435;-68
2023/12/19 05:33:15;;;;;;;6.63;2.87;;;0.30;99.90;2.80;97736.00;;;;5045425;28;20422;-68
2023/12/19 05:36:05;;;;;;;5.97;2.60;;;0.20;99.90;2.40;97735.00;;;;5049895;28;20446;-68
2023/12/19 05:38:54;;;;;;;5.83;2.53;;;0.00;99.90;1.90;97734.00;;;;5050001;28;20443;-67
2023/12/19 05:41:43;;;;;;;6.40;2.83;;;0.00;99.90;2.60;97744.00;;;;5047071;28;20428;-68
2023/12/19 05:44:31;;;;;;;7.13;2.93;;;0.10;99.90;2.60;97744.00;;;;5048260;28;20483;-67
2023/12/19 05:47:22;;;;;;;7.77;3.20;;;0.10;99.90;2.70;97738.00;;;;5045437;28;20439;-67
2023/12/19 05:50:11;;;;;;;5.97;2.33;;;0.00;99.90;2.60;97736.00;;;;5043874;28;20810;-68
2023/12/19 05:53:00;;;;;;;18.03;6.73;;;0.40;99.90;2.40;97743.00;;;;5046216;28;20810;-68
2023/12/19 05:55:49;;;;;;;9.67;3.93;;;0.30;99.90;2.30;97741.00;;;;5042274;28;20450;-68
2023/12/19 05:58:38;;;;;;;7.03;2.90;;;0.30;99.90;2.60;97747.00;;;;5045392;28;21003;-67
2023/12/19 06:01:27;;;;;;;11.23;4.33;;;0.00;99.90;2.50;97735.00;;;;5046538;28;20439;-67
2023/12/19 06:04:17;;;;;;;6.23;2.60;;;0.00;99.90;2.70;97733.00;;;;5046824;28;20455;-68
2023/12/19 06:07:06;;;;;;;8.17;3.13;;;0.20;99.90;2.10;97722.00;;;;5046534;28;20455;-68
2023/12/19 06:09:55;;;;;;;12.47;4.73;;;0.30;99.90;1.90;97711.00;;;;5048426;28;20424;-67
2023/12/19 06:12:44;;;;;;;5.57;2.37;;;0.20;99.90;2.10;97716.00;;;;5050553;28;20989;-67
2023/12/19 06:15:33;;;;;;;9.33;3.83;;;0.30;99.90;1.90;97718.00;;;;5044738;28;20435;-66
2023/12/19 06:18:21;;;;;;;6.43;2.60;;;-0.20;99.90;2.50;97726.00;;;;5045001;28;20458;-67
2023/12/19 06:21:12;;;;;;;5.40;2.33;;;0.00;99.90;2.60;97733.00;;;;5048963;28;20461;-66
2023/12/19 06:24:01;;;;;;;4.50;2.10;;;-0.10;99.90;2.70;97744.00;;;;5043222;28;20460;-67
2023/12/19 06:26:49;;;;;;;8.93;3.63;;;0.20;99.90;2.70;97731.00;;;;5041922;28;20827;-67
2023/12/19 06:29:38;;;;;;;5.10;2.23;;;-0.10;99.90;2.20;97727.00;;;;5046803;28;20431;-67
2023/12/19 06:32:27;;;;;;;13.83;5.30;;;0.00;99.90;2.40;97735.00;;;;5041430;28;20804;-67
2023/12/19 06:35:16;;;;;;;11.00;4.43;;;0.20;99.90;2.00;97723.00;;;;5044650;28;20806;-68
2023/12/19 06:38:06;;;;;;;6.43;2.53;;;-0.30;99.90;2.20;97729.00;;;;5068006;22;20490;-75
2023/12/19 06:40:55;;;;;;;9.23;3.53;;;-0.10;99.90;2.40;97733.00;;;;5046428;28;20986;-74
2023/12/19 06:43:44;;;;;;;6.90;2.70;;;-0.30;99.90;2.60;97735.00;;;;5047241;28;20477;-73
2023/12/19 06:46:33;;;;;;;10.93;3.90;;;0.00;99.90;2.20;97726.00;;;;5044940;28;20431;-76
2023/12/19 06:49:24;;;;;;;6.33;2.53;;;0.00;99.90;2.20;97723.00;;;;5022812;28;20433;-72
2023/12/19 06:52:13;;;;;;;6.17;2.50;;;-0.30;99.90;2.30;97728.00;;;;5023770;28;20663;-75
2023/12/19 06:55:04;;;;;;;8.17;3.00;;;0.00;99.90;2.30;97723.00;;;;5025099;28;20458;-73
2023/12/19 06:57:55;;;;;;;7.30;2.77;;;0.00;99.90;2.60;97724.00;;;;5020843;28;21061;-76
2023/12/19 07:00:44;;;;;;;22.37;7.67;;;0.00;99.90;2.80;97730.00;;;;5019091;28;20448;-75
2023/12/19 07:03:33;;;;;;;16.10;5.47;;;0.10;99.90;3.10;97731.00;;;;5022143;28;21005;-74
2023/12/19 07:06:22;;;;;;;10.00;3.53;;;0.00;99.90;3.00;97728.00;;;;5024789;28;20953;-75
2023/12/19 07:09:14;;;;;;;12.03;4.23;;;0.50;99.90;1.90;97712.00;;;;5022744;28;20486;-76
2023/12/19 07:12:05;;;;;;;11.77;4.10;;;0.30;99.90;2.00;97715.00;;;;5026200;28;20447;-75
2023/12/19 07:14:54;;;;;;;11.63;4.47;;;0.10;99.90;1.90;97714.00;;;;5020104;28;20436;-72
2023/12/19 07:17:45;;;;;;;6.90;2.77;;;-0.10;99.90;2.80;97715.00;;;;5023211;28;20483;-73
2023/12/19 07:20:34;;;;;;;12.20;4.40;;;-0.10;99.90;2.70;97721.00;;;;5026123;28;20448;-72
2023/12/19 07:23:24;;;;;;;6.73;2.60;;;0.50;99.90;2.30;97724.00;;;;5022465;28;20427;-74
2023/12/19 07:26:23;;;;;;;11.30;3.97;;;0.30;99.90;1.80;97708.00;;;;5022688;28;20839;-75
2023/12/19 07:29:13;;;;;;;7.33;2.63;;;0.20;99.90;2.00;97704.00;;;;5024143;28;20510;-76
2023/12/19 07:32:02;;;;;;;13.83;4.87;;;0.20;99.90;2.30;97703.00;;;;5022144;28;20456;-73
2023/12/19 07:34:51;;;;;;;9.33;3.40;;;0.50;99.90;2.30;97709.00;;;;5019171;28;20988;-75
2023/12/19 07:37:40;;;;;;;13.23;4.87;;;0.40;99.90;1.90;97706.00;;;;5024103;28;20803;-75
2023/12/19 07:40:29;;;;;;;14.93;5.13;;;0.10;99.90;1.70;97705.00;;;;5021405;28;20459;-73
2023/12/19 07:43:18;;;;;;;5.17;2.17;;;0.20;99.90;1.60;97712.00;;;;5026537;28;20973;-75
2023/12/19 07:46:08;;;;;;;6.40;2.57;;;0.30;99.90;2.20;97728.00;;;;5026661;28;20487;-75
2023/12/19 07:48:57;;;;;;;6.60;2.70;;;0.40;99.90;2.40;97725.00;;;;5025291;28;20467;-75
2023/12/19 07:51:46;;;;;;;7.07;2.63;;;0.10;99.90;2.80;97727.00;;;;5021990;28;20428;-75
2023/12/19 07:54:36;;;;;;;7.40;2.83;;;0.30;99.90;3.10;97723.00;;;;5023619;28;20440;-73
2023/12/19 07:57:24;;;;;;;11.33;4.07;;;0.70;99.90;3.40;97726.00;;;;5024242;28;20510;-73
2023/12/19 08:00:15;;;;;;;7.30;2.60;;;0.90;99.90;3.50;97732.00;;;;5024165;28;20440;-72
2023/12/19 08:03:06;;;;;;;15.77;5.17;;;1.00;99.90;4.40;97733.00;;;;5024708;28;20428;-72
2023/12/19 08:05:56;;;;;;;8.00;2.77;;;1.60;99.90;4.20;97721.00;;;;5027559;28;20845;-75
2023/12/19 08:08:45;;;;;;;8.50;3.07;;;1.70;99.90;4.20;97725.00;;;;5026767;28;20460;-76
2023/12/19 08:11:34;;;;;;;13.73;4.50;;;1.80;99.90;4.30;97723.00;;;;5021452;28;20470;-74
2023/12/19 08:14:22;;;;;;;7.77;2.70;;;1.80;99.90;4.70;97720.00;;;;5025540;28;20423;-76
2023/12/19 08:17:11;;;;;;;12.20;3.93;;;1.90;99.90;4.20;97709.00;;;;5022648;28;20448;-75
2023/12/19 08:20:03;;;;;;;11.23;3.73;;;2.10;99.90;4.20;97716.00;;;;5026126;28;20447;-72
2023/12/19 08:22:52;;;;;;;12.90;4.07;;;2.30;99.90;4.60;97712.00;;;;5026430;28;20435;-74
2023/12/19 08:25:41;;;;;;;15.53;4.97;;;2.40;99.90;4.50;97705.00;;;;5018118;28;20487;-74
2023/12/19 08:28:30;;;;;;;9.80;3.20;;;2.60;99.90;4.10;97701.00;;;;5026404;28;20455;-74
2023/12/19 08:31:19;;;;;;;8.40;2.80;;;2.20;99.90;4.10;97700.00;;;;5027305;28;20212;-73
2023/12/19 08:34:08;;;;;;;7.43;2.57;;;2.20;99.90;4.90;97711.00;;;;5026156;28;20436;-74
2023/12/19 08:36:58;;;;;;;9.50;3.00;;;2.40;99.90;5.60;97718.00;;;;5025374;28;20428;-75
2023/12/19 08:39:54;;;;;;;7.87;2.57;;;2.50;99.90;5.00;97707.00;;;;5025141;28;20425;-73
2023/12/19 08:42:43;;;;;;;11.63;3.80;;;2.70;99.90;4.60;97697.00;;;;5025502;28;20201;-75
2023/12/19 08:45:32;;;;;;;13.40;4.33;;;2.90;99.90;5.20;97699.00;;;;5025622;28;20229;-74
2023/12/19 08:48:21;;;;;;;7.17;2.27;;;2.90;99.90;5.70;97713.00;;;;5023115;28;20229;-75
2023/12/19 08:51:10;;;;;;;6.67;2.37;;;2.90;99.90;5.60;97706.00;;;;5027152;28;20276;-75
2023/12/19 08:54:00;;;;;;;9.90;3.23;;;3.30;99.90;6.10;97706.00;;;;5025856;28;20276;-74
2023/12/19 08:56:49;;;;;;;11.27;3.57;;;3.30;99.90;5.90;97697.00;;;;5028521;28;20197;-75
2023/12/19 08:59:38;;;;;;;13.47;4.37;;;3.60;99.90;5.90;97701.00;;;;5027421;28;20589;-76
2023/12/19 09:02:27;;;;;;;6.43;2.23;;;3.80;99.90;5.80;97686.00;;;;5023210;28;20213;-76
2023/12/19 09:05:17;;;;;;;6.87;2.40;;;3.80;99.90;6.00;97683.00;;;;5026953;28;20225;-74
2023/12/19 09:08:07;;;;;;;7.00;2.40;;;3.50;99.90;7.00;97695.00;;;;5025742;28;20233;-74
2023/12/19 09:10:57;;;;;;;9.07;2.93;;;3.70;99.90;7.10;97672.00;;;;5024977;28;20209;-75
2023/12/19 09:13:46;;;;;;;8.83;2.83;;;4.00;99.90;6.90;97663.00;;;;5023725;28;20603;-75
2023/12/19 09:16:35;;;;;;;11.93;3.73;;;4.60;99.90;7.70;97676.00;;;;5026896;28;20204;-73
2023/12/19 09:19:23;;;;;;;5.27;1.90;;;4.50;99.90;7.60;97665.00;;;;5027543;28;20208;-74
2023/12/19 09:22:12;;;;;;;8.93;2.80;;;4.70;99.90;7.40;97659.00;;;;5022057;28;20209;-73
2023/12/19 09:25:01;;;;;;;8.40;2.73;;;5.20;99.90;7.20;97658.00;;;;5025664;28;20682;-75
2023/12/19 09:27:51;;;;;;;7.87;2.57;;;4.70;99.90;7.70;97655.00;;;;5026109;28;20221;-73
2023/12/19 09:30:40;;;;;;;15.57;4.93;;;5.20;99.90;7.80;97646.00;;;;5025077;28;20587;-73
2023/12/19 09:33:29;;;;;;;10.00;3.27;;;5.40;99.90;7.60;97642.00;;;;5026153;28;20201;-72
2023/12/19 09:36:22;;;;;;;7.67;2.63;;;5.20;99.90;7.80;97644.00;;;;5023026;28;20205;-72
2023/12/19 09:39:12;;;;;;;7.27;2.50;;;5.30;99.90;7.40;97641.00;;;;5026024;28;20239;-72
2023/12/19 09:42:01;;;;;;;12.43;3.97;;;5.30;99.90;7.80;97642.00;;;;5025567;28;20205;-73
2023/12/19 09:44:51;;;;;;;7.77;2.63;;;5.30;99.90;7.30;97627.00;;;;5023811;28;20237;-76
2023/12/19 09:47:41;;;;;;;12.57;4.13;;;5.10;99.90;6.30;97614.00;;;;5030117;28;20228;-73
2023/12/19 09:50:31;;;;;;;14.33;4.53;;;5.00;99.90;7.10;97612.00;;;;5025987;28;20225;-76
2023/12/19 09:53:21;;;;;;;5.27;1.83;;;4.80;99.90;7.80;97613.00;;;;5029177;28;20292;-74
2023/12/19 09:56:11;;;;;;;7.23;2.40;;;5.20;99.90;8.80;97608.00;;;;5025154;28;20348;-74
2023/12/19 09:59:04;;;;;;;8.63;2.90;;;5.10;99.90;9.00;97608.00;;;;5030100;28;20229;-74
2023/12/19 10:01:54;;;;;;;15.13;4.70;;;5.50;99.90;8.50;97600.00;;;;5025345;28;20197;-74
2023/12/19 10:04:43;;;;;;;12.53;4.17;;;5.80;99.90;8.80;97589.00;;;;5027125;28;20209;-73
2023/12/19 10:07:32;;;;;;;12.43;4.00;;;5.60;99.90;8.50;97584.00;;;;5029183;28;20225;-74
2023/12/19 10:10:27;;;;;;;7.77;2.60;;;6.00;99.90;8.40;97570.00;;;;5026100;28;20224;-73
2023/12/19 10:13:27;;;;;;;7.87;2.57;;;6.20;99.90;9.70;97558.00;;;;5028958;28;20205;-73
2023/12/19 10:16:19;;;;;;;8.40;2.70;;;6.30;99.90;10.20;97572.00;;;;5029349;28;20204;-74
2023/12/19 10:19:13;;;;;;;9.80;2.93;;;6.40;99.90;10.80;97566.00;;;;5027202;28;20225;-73
2023/12/19 10:22:14;;;;;;;11.50;3.50;;;7.00;99.90;11.70;97556.00;;;;5028867;28;20217;-71
2023/12/19 10:25:04;;;;;;;9.27;2.83;;;8.20;99.90;11.50;97549.00;;;;5028663;28;20208;-73
2023/12/19 10:28:07;;;;;;;11.10;3.40;;;9.50;99.90;12.60;97551.00;;;;5026602;28;20224;-74
2023/12/19 10:31:12;;;;;;;12.50;3.70;;;10.40;99.90;11.80;97536.00;;;;5029472;28;20197;-73
2023/12/19 10:34:02;;;;;;;10.07;3.10;;;11.80;99.90;12.70;97529.00;;;;5028436;28;20744;-72
2023/12/19 10:36:52;;;;;;;16.50;4.77;;;12.10;99.90;12.30;97521.00;;;;5031222;28;20575;-74
2023/12/19 10:39:43;;;;;;;9.00;2.70;;;12.70;99.90;12.20;97521.00;;;;5027399;28;20216;-73
2023/12/19 10:42:32;;;;;;;14.23;4.13;;;12.50;99.80;13.10;97518.00;;;;5027331;28;20201;-73
2023/12/19 10:45:22;;;;;;;9.10;2.73;;;13.00;98.80;12.50;97509.00;;;;5025891;28;20229;-74
2023/12/19 10:48:11;;;;;;;7.37;2.33;;;13.00;97.80;13.50;97505.00;;;;5022915;28;20229;-73
2023/12/19 10:51:01;;;;;;;11.07;3.40;;;13.60;96.30;14.40;97498.00;;;;5028872;28;20205;-72
2023/12/19 10:53:59;;;;;;;10.10;3.00;;;14.00;96.30;14.50;97494.00;;;;5028112;28;20208;-71
2023/12/19 10:56:59;;;;;;;12.30;3.77;;;14.10;95.40;14.20;97485.00;;;;5025914;28;20197;-73
2023/12/19 10:59:55;;;;;;;8.97;2.83;;;14.30;94.10;14.90;97482.00;;;;5024375;28;20220;-72
2023/12/19 11:02:53;;;;;;;16.90;5.13;;;14.80;94.00;15.00;97478.00;;;;5024300;28;20224;-72
2023/12/19 11:05:45;;;;;;;15.80;4.77;;;14.90;93.40;15.40;97483.00;;;;5023512;28;20194;-73
2023/12/19 11:08:35;;;;;;;18.50;5.40;;;15.30;92.40;14.30;97462.00;;;;5027786;28;20594;-73
2023/12/19 11:11:33;;;;;;;12.70;3.80;;;15.40;90.80;14.70;97457.00;;;;5029068;28;20197;-73
2023/12/19 11:14:24;;;;;;;7.07;2.30;;;15.10;91.50;14.70;97448.00;;;;5027844;28;20572;-73
2023/12/19 11:17:24;;;;;;;14.63;4.43;;;15.00;90.20;14.80;97448.00;;;;5023515;28;20233;-73
2023/12/19 11:20:20;;;;;;;13.37;3.97;;;15.40;89.90;14.60;97445.00;;;;5018441;28;20260;-71
2023/12/19 11:23:27;;;;;;;11.77;3.63;;;15.10;88.90;16.20;97444.00;;;;5019465;28;20202;-73
2023/12/19 11:26:21;;;;;;;10.27;3.03;;;15.70;89.50;15.30;97440.00;;;;5025525;28;20212;-73
2023/12/19 11:29:44;;;;;;;10.87;3.20;;;15.90;88.00;15.70;97438.00;;;;5028230;28;20236;-73
2023/12/19 11:32:40;;;;;;;17.00;5.07;;;15.60;85.90;15.80;97428.00;;;;5028104;28;20208;-73
2023/12/19 11:35:30;;;;;;;10.63;3.07;;;15.10;86.40;16.30;97433.00;;;;5024417;28;20198;-71
2023/12/19 11:38:26;;;;;;;11.40;3.27;;;15.80;85.30;16.10;97417.00;;;;5022576;28;20244;-70
2023/12/19 11:41:37;;;;;;;16.00;4.60;;;15.60;83.60;15.50;97408.00;;;;5020645;28;20201;-72
2023/12/19 11:44:37;;;;;;;14.03;4.27;;;15.40;84.30;15.10;97410.00;;;;5024772;28;20720;-73
2023/12/19 11:47:30;;;;;;;13.50;4.63;;;15.30;84.30;15.30;97395.00;;;;5024503;28;20225;-72
2023/12/19 11:50:46;;;;;;;15.00;4.90;;;15.30;84.20;16.20;97397.00;;;;5025256;28;20208;-70
2023/12/19 11:53:35;;;;;;;24.87;6.83;;;15.30;84.50;15.70;97394.00;;;;5025602;28;20198;-72
2023/12/19 11:56:24;;;;;;;25.47;7.90;;;15.20;84.00;16.10;97386.00;;;;5023000;28;20240;-72
2023/12/19 11:59:15;;;;;;;14.43;4.50;;;15.30;84.00;16.20;97389.00;;;;5023041;28;20306;-73
2023/12/19 12:02:06;;;;;;;24.63;7.10;;;15.10;83.60;16.30;97379.00;;;;5027009;28;20213;-72
2023/12/19 12:05:12;;;;;;;23.83;7.60;;;15.20;84.10;15.40;97363.00;;;;5027357;28;20197;-72
2023/12/19 12:08:01;;;;;;;28.23;11.00;;;15.00;81.10;17.00;97374.00;;;;5012700;28;20228;-72
2023/12/19 12:11:01;;;;;;;41.13;37.23;;;15.30;83.80;16.90;97371.00;;;;5019066;28;20201;-72
2023/12/19 12:14:02;;;;;;;56.73;52.30;;;15.50;83.60;16.60;97366.00;;;;5018121;28;20884;-71
2023/12/19 12:16:51;;;;;;;69.73;64.10;;;15.70;83.40;16.60;97365.00;;;;5016507;28;20221;-74
2023/12/19 12:19:42;;;;;;;101.53;92.43;;;15.60;82.70;17.90;97355.00;;;;5016009;28;20216;-71
2023/12/19 12:22:32;;;;;;;33.17;22.43;;;15.80;82.50;17.50;97350.00;;;;5017048;28;20748;-71
2023/12/19 12:25:22;;;;;;;42.70;38.47;;;15.80;81.30;17.50;97345.00;;;;5017783;28;20678;-72
2023/12/19 12:28:17;;;;;;;19.23;6.57;;;16.10;80.00;17.90;97337.00;;;;5016971;28;20231;-72
2023/12/19 12:31:07;;;;;;;27.00;8.97;;;16.10;80.00;18.00;97329.00;;;;5014617;28;20216;-74
2023/12/19 12:33:57;;;;;;;16.03;5.40;;;16.20;79.00;17.10;97317.00;;;;5013351;28;20327;-73
2023/12/19 12:36:49;;;;;;;28.03;9.07;;;16.00;78.30;17.50;97318.00;;;;5013781;28;20225;-71
2023/12/19 12:39:40;;;;;;;17.17;6.17;;;16.30;77.40;17.00;97308.00;;;;5016166;28;20201;-72
2023/12/19 12:42:29;;;;;;;11.20;3.93;;;16.10;77.10;18.90;97303.00;;;;5016322;28;19983;-71
2023/12/19 12:45:18;;;;;;;12.90;4.70;;;16.30;78.40;19.10;97304.00;;;;5015825;28;20216;-71
2023/12/19 12:48:13;;;;;;;14.00;5.13;;;16.50;76.60;19.50;97289.00;;;;5015137;28;20706;-72